sensor_id;sensor_type;location;lat;lon;timestamp;P1;durP1;ratioP1;P2;durP2;ratioP2
68523;SDS011;55524;51.380;13.372;2022-11-27T00:01:50;18.33;;;7.80;;
68523;SDS011;55524;51.380;13.372;2022-11-27T00:04:36;21.27;;;7.72;;
68523;SDS011;55524;51.380;13.372;2022-11-27T00:07:23;21.90;;;7.88;;
68523;SDS011;55524;51.380;13.372;2022-11-27T00:10:09;15.93;;;8.43;;
68523;SDS011;55524;51.380;13.372;2022-11-27T00:12:45;20.73;;;7.88;;
68523;SDS011;55524;51.380;13.372;2022-11-27T00:15:52;13.80;;;7.47;;
68523;SDS011;55524;51.380;13.372;2022-11-27T00:18:42;25.65;;;7.45;;
68523;SDS011;55524;51.380;13.372;2022-11-27T00:21:11;15.98;;;7.70;;
68523;SDS011;55524;51.380;13.372;2022-11-27T00:23:40;19.13;;;7.80;;
68523;SDS011;55524;51.380;13.372;2022-11-27T00:26:27;25.23;;;8.60;;
68523;SDS011;55524;51.380;13.372;2022-11-27T00:29:06;21.75;;;8.73;;
68523;SDS011;55524;51.380;13.372;2022-11-27T00:31:53;23.63;;;7.88;;
68523;SDS011;55524;51.380;13.372;2022-11-27T00:34:39;26.05;;;8.52;;
68523;SDS011;55524;51.380;13.372;2022-11-27T00:37:23;18.00;;;8.15;;
68523;SDS011;55524;51.380;13.372;2022-11-27T00:39:50;23.23;;;8.20;;
68523;SDS011;55524;51.380;13.372;2022-11-27T00:42:36;22.02;;;8.07;;
68523;SDS011;55524;51.380;13.372;2022-11-27T00:45:11;21.25;;;8.32;;
68523;SDS011;55524;51.380;13.372;2022-11-27T00:48:18;16.45;;;7.13;;
68523;SDS011;55524;51.380;13.372;2022-11-27T00:51:05;14.32;;;7.57;;
68523;SDS011;55524;51.380;13.372;2022-11-27T00:53:52;26.45;;;8.13;;
68523;SDS011;55524;51.380;13.372;2022-11-27T00:56:39;18.67;;;8.15;;
68523;SDS011;55524;51.380;13.372;2022-11-27T00:59:34;19.00;;;7.60;;
68523;SDS011;55524;51.380;13.372;2022-11-27T01:02:21;21.63;;;7.65;;
68523;SDS011;55524;51.380;13.372;2022-11-27T01:05:28;17.17;;;7.47;;
68523;SDS011;55524;51.380;13.372;2022-11-27T01:07:54;16.00;;;7.65;;
68523;SDS011;55524;51.380;13.372;2022-11-27T01:14:01;15.88;;;8.18;;
68523;SDS011;55524;51.380;13.372;2022-11-27T01:16:37;16.65;;;7.70;;
68523;SDS011;55524;51.380;13.372;2022-11-27T01:19:24;17.70;;;7.90;;
68523;SDS011;55524;51.380;13.372;2022-11-27T01:21:59;16.90;;;7.68;;
68523;SDS011;55524;51.380;13.372;2022-11-27T01:27:55;19.73;;;7.50;;
68523;SDS011;55524;51.380;13.372;2022-11-27T01:30:46;17.77;;;7.55;;
68523;SDS011;55524;51.380;13.372;2022-11-27T01:33:30;19.50;;;7.30;;
68523;SDS011;55524;51.380;13.372;2022-11-27T01:35:57;15.02;;;7.22;;
68523;SDS011;55524;51.380;13.372;2022-11-27T01:39:04;14.35;;;7.07;;
68523;SDS011;55524;51.380;13.372;2022-11-27T01:41:51;14.57;;;7.18;;
68523;SDS011;55524;51.380;13.372;2022-11-27T01:44:56;14.18;;;6.95;;
68523;SDS011;55524;51.380;13.372;2022-11-27T01:47:53;13.85;;;7.68;;
68523;SDS011;55524;51.380;13.372;2022-11-27T01:50:29;17.05;;;6.80;;
68523;SDS011;55524;51.380;13.372;2022-11-27T01:53:36;22.65;;;7.15;;
68523;SDS011;55524;51.380;13.372;2022-11-27T01:56:26;16.77;;;7.10;;
68523;SDS011;55524;51.380;13.372;2022-11-27T01:59:19;17.25;;;8.00;;
68523;SDS011;55524;51.380;13.372;2022-11-27T02:02:27;14.88;;;7.30;;
68523;SDS011;55524;51.380;13.372;2022-11-27T02:05:23;12.40;;;7.22;;
68523;SDS011;55524;51.380;13.372;2022-11-27T02:07:55;14.02;;;7.53;;
68523;SDS011;55524;51.380;13.372;2022-11-27T02:13:32;14.85;;;7.28;;
68523;SDS011;55524;51.380;13.372;2022-11-27T02:21:37;19.25;;;7.68;;
68523;SDS011;55524;51.380;13.372;2022-11-27T02:29:56;11.20;;;7.10;;
68523;SDS011;55524;51.380;13.372;2022-11-27T02:36:17;13.30;;;7.20;;
68523;SDS011;55524;51.380;13.372;2022-11-27T02:39:06;18.83;;;7.75;;
68523;SDS011;55524;51.380;13.372;2022-11-27T02:42:02;18.80;;;7.40;;
68523;SDS011;55524;51.380;13.372;2022-11-27T02:44:34;16.75;;;7.78;;
68523;SDS011;55524;51.380;13.372;2022-11-27T02:47:05;15.20;;;7.65;;
68523;SDS011;55524;51.380;13.372;2022-11-27T02:49:34;15.38;;;7.80;;
68523;SDS011;55524;51.380;13.372;2022-11-27T02:52:13;17.85;;;7.68;;
68523;SDS011;55524;51.380;13.372;2022-11-27T02:54:53;18.08;;;7.75;;
68523;SDS011;55524;51.380;13.372;2022-11-27T02:57:41;21.65;;;7.60;;
68523;SDS011;55524;51.380;13.372;2022-11-27T03:02:58;17.42;;;7.72;;
68523;SDS011;55524;51.380;13.372;2022-11-27T03:05:37;16.88;;;8.05;;
68523;SDS011;55524;51.380;13.372;2022-11-27T03:11:12;16.35;;;7.68;;
68523;SDS011;55524;51.380;13.372;2022-11-27T03:14:09;23.73;;;8.52;;
68523;SDS011;55524;51.380;13.372;2022-11-27T03:19:25;20.27;;;8.13;;
68523;SDS011;55524;51.380;13.372;2022-11-27T03:21:55;22.10;;;9.10;;
68523;SDS011;55524;51.380;13.372;2022-11-27T03:24:46;22.77;;;8.00;;
68523;SDS011;55524;51.380;13.372;2022-11-27T03:27:14;20.10;;;8.27;;
68523;SDS011;55524;51.380;13.372;2022-11-27T03:32:34;22.15;;;7.75;;
68523;SDS011;55524;51.380;13.372;2022-11-27T03:35:22;17.65;;;8.40;;
68523;SDS011;55524;51.380;13.372;2022-11-27T03:37:50;16.77;;;8.52;;
68523;SDS011;55524;51.380;13.372;2022-11-27T03:40:18;19.33;;;8.02;;
68523;SDS011;55524;51.380;13.372;2022-11-27T03:48:30;16.60;;;8.52;;
68523;SDS011;55524;51.380;13.372;2022-11-27T03:59:26;17.92;;;7.28;;
68523;SDS011;55524;51.380;13.372;2022-11-27T04:02:05;17.83;;;7.65;;
68523;SDS011;55524;51.380;13.372;2022-11-27T04:04:50;21.90;;;7.60;;
68523;SDS011;55524;51.380;13.372;2022-11-27T04:07:36;16.80;;;8.25;;
68523;SDS011;55524;51.380;13.372;2022-11-27T04:10:23;16.92;;;7.80;;
68523;SDS011;55524;51.380;13.372;2022-11-27T04:12:58;15.93;;;8.15;;
68523;SDS011;55524;51.380;13.372;2022-11-27T04:15:34;16.17;;;7.80;;
68523;SDS011;55524;51.380;13.372;2022-11-27T04:18:15;18.73;;;7.93;;
68523;SDS011;55524;51.380;13.372;2022-11-27T04:21:02;21.33;;;7.43;;
68523;SDS011;55524;51.380;13.372;2022-11-27T04:23:46;13.68;;;7.35;;
68523;SDS011;55524;51.380;13.372;2022-11-27T04:26:33;13.98;;;6.57;;
68523;SDS011;55524;51.380;13.372;2022-11-27T04:29:19;15.07;;;6.85;;
68523;SDS011;55524;51.380;13.372;2022-11-27T04:31:46;13.32;;;6.57;;
68523;SDS011;55524;51.380;13.372;2022-11-27T04:34:35;12.30;;;6.75;;
68523;SDS011;55524;51.380;13.372;2022-11-27T04:37:27;16.25;;;7.30;;
68523;SDS011;55524;51.380;13.372;2022-11-27T04:40:22;14.25;;;6.60;;
68523;SDS011;55524;51.380;13.372;2022-11-27T04:43:08;12.73;;;6.85;;
68523;SDS011;55524;51.380;13.372;2022-11-27T04:45:35;15.02;;;6.93;;
68523;SDS011;55524;51.380;13.372;2022-11-27T04:48:01;13.95;;;6.45;;
68523;SDS011;55524;51.380;13.372;2022-11-27T04:50:36;13.93;;;7.93;;
68523;SDS011;55524;51.380;13.372;2022-11-27T04:53:03;15.48;;;6.78;;
68523;SDS011;55524;51.380;13.372;2022-11-27T04:55:49;16.13;;;7.32;;
68523;SDS011;55524;51.380;13.372;2022-11-27T04:58:16;19.73;;;7.38;;
68523;SDS011;55524;51.380;13.372;2022-11-27T05:00:46;17.88;;;7.35;;
68523;SDS011;55524;51.380;13.372;2022-11-27T05:03:12;14.68;;;6.93;;
68523;SDS011;55524;51.380;13.372;2022-11-27T05:05:38;16.58;;;7.65;;
68523;SDS011;55524;51.380;13.372;2022-11-27T05:08:45;16.13;;;7.30;;
68523;SDS011;55524;51.380;13.372;2022-11-27T05:11:37;17.73;;;7.28;;
68523;SDS011;55524;51.380;13.372;2022-11-27T05:14:26;14.10;;;6.70;;
68523;SDS011;55524;51.380;13.372;2022-11-27T05:17:33;16.23;;;6.50;;
68523;SDS011;55524;51.380;13.372;2022-11-27T05:20:17;16.55;;;7.45;;
68523;SDS011;55524;51.380;13.372;2022-11-27T05:22:51;17.42;;;6.82;;
68523;SDS011;55524;51.380;13.372;2022-11-27T05:25:17;14.18;;;6.72;;
68523;SDS011;55524;51.380;13.372;2022-11-27T05:27:44;16.40;;;7.10;;
68523;SDS011;55524;51.380;13.372;2022-11-27T05:30:10;15.07;;;7.32;;
68523;SDS011;55524;51.380;13.372;2022-11-27T05:32:56;13.25;;;7.00;;
68523;SDS011;55524;51.380;13.372;2022-11-27T05:38:48;15.07;;;6.93;;
68523;SDS011;55524;51.380;13.372;2022-11-27T05:41:45;15.38;;;7.63;;
68523;SDS011;55524;51.380;13.372;2022-11-27T05:44:40;18.02;;;7.53;;
68523;SDS011;55524;51.380;13.372;2022-11-27T05:47:10;16.52;;;7.10;;
68523;SDS011;55524;51.380;13.372;2022-11-27T05:49:59;16.80;;;7.45;;
68523;SDS011;55524;51.380;13.372;2022-11-27T05:52:56;15.32;;;6.60;;
68523;SDS011;55524;51.380;13.372;2022-11-27T05:55:43;12.77;;;6.15;;
68523;SDS011;55524;51.380;13.372;2022-11-27T05:58:09;14.43;;;6.70;;
68523;SDS011;55524;51.380;13.372;2022-11-27T06:00:39;17.25;;;6.47;;
68523;SDS011;55524;51.380;13.372;2022-11-27T06:03:26;15.15;;;7.00;;
68523;SDS011;55524;51.380;13.372;2022-11-27T06:06:16;19.15;;;6.03;;
68523;SDS011;55524;51.380;13.372;2022-11-27T06:09:04;11.77;;;6.47;;
68523;SDS011;55524;51.380;13.372;2022-11-27T06:11:39;14.57;;;6.43;;
68523;SDS011;55524;51.380;13.372;2022-11-27T06:14:17;13.50;;;6.80;;
68523;SDS011;55524;51.380;13.372;2022-11-27T06:17:04;12.57;;;6.57;;
68523;SDS011;55524;51.380;13.372;2022-11-27T06:19:41;15.55;;;6.55;;
68523;SDS011;55524;51.380;13.372;2022-11-27T06:22:07;17.15;;;6.75;;
68523;SDS011;55524;51.380;13.372;2022-11-27T06:24:54;13.77;;;6.68;;
68523;SDS011;55524;51.380;13.372;2022-11-27T06:27:23;16.92;;;6.97;;
68523;SDS011;55524;51.380;13.372;2022-11-27T06:29:49;13.68;;;6.70;;
68523;SDS011;55524;51.380;13.372;2022-11-27T06:32:36;15.35;;;7.22;;
68523;SDS011;55524;51.380;13.372;2022-11-27T06:35:25;16.65;;;6.93;;
68523;SDS011;55524;51.380;13.372;2022-11-27T06:38:11;12.65;;;6.45;;
68523;SDS011;55524;51.380;13.372;2022-11-27T06:40:41;16.75;;;6.82;;
68523;SDS011;55524;51.380;13.372;2022-11-27T06:43:19;18.27;;;6.90;;
68523;SDS011;55524;51.380;13.372;2022-11-27T06:46:06;14.85;;;6.88;;
68523;SDS011;55524;51.380;13.372;2022-11-27T06:48:38;14.02;;;5.97;;
68523;SDS011;55524;51.380;13.372;2022-11-27T06:51:28;14.00;;;6.35;;
68523;SDS011;55524;51.380;13.372;2022-11-27T06:54:15;12.55;;;6.05;;
68523;SDS011;55524;51.380;13.372;2022-11-27T06:56:41;13.32;;;6.18;;
68523;SDS011;55524;51.380;13.372;2022-11-27T06:59:17;11.00;;;6.70;;
68523;SDS011;55524;51.380;13.372;2022-11-27T07:02:04;11.68;;;6.22;;
68523;SDS011;55524;51.380;13.372;2022-11-27T07:04:36;13.45;;;6.18;;
68523;SDS011;55524;51.380;13.372;2022-11-27T07:07:20;11.48;;;6.05;;
68523;SDS011;55524;51.380;13.372;2022-11-27T07:10:07;16.35;;;6.78;;
68523;SDS011;55524;51.380;13.372;2022-11-27T07:12:33;13.88;;;7.00;;
68523;SDS011;55524;51.380;13.372;2022-11-27T07:15:00;11.85;;;6.78;;
68523;SDS011;55524;51.380;13.372;2022-11-27T07:17:29;18.55;;;7.50;;
68523;SDS011;55524;51.380;13.372;2022-11-27T07:19:55;16.73;;;7.85;;
68523;SDS011;55524;51.380;13.372;2022-11-27T07:22:21;13.88;;;7.50;;
68523;SDS011;55524;51.380;13.372;2022-11-27T07:25:37;19.08;;;6.75;;
68523;SDS011;55524;51.380;13.372;2022-11-27T07:28:21;15.35;;;6.82;;
68523;SDS011;55524;51.380;13.372;2022-11-27T07:33:54;16.27;;;7.03;;
68523;SDS011;55524;51.380;13.372;2022-11-27T07:36:36;13.45;;;7.00;;
68523;SDS011;55524;51.380;13.372;2022-11-27T07:39:22;21.48;;;8.20;;
68523;SDS011;55524;51.380;13.372;2022-11-27T07:41:48;23.77;;;9.18;;
68523;SDS011;55524;51.380;13.372;2022-11-27T07:44:23;19.00;;;8.68;;
68523;SDS011;55524;51.380;13.372;2022-11-27T07:46:50;19.23;;;7.55;;
68523;SDS011;55524;51.380;13.372;2022-11-27T07:49:36;19.88;;;7.60;;
68523;SDS011;55524;51.380;13.372;2022-11-27T07:52:24;16.00;;;7.95;;
68523;SDS011;55524;51.380;13.372;2022-11-27T07:55:11;17.80;;;6.75;;
68523;SDS011;55524;51.380;13.372;2022-11-27T07:57:58;16.10;;;7.15;;
68523;SDS011;55524;51.380;13.372;2022-11-27T08:00:44;13.82;;;6.80;;
68523;SDS011;55524;51.380;13.372;2022-11-27T08:03:32;17.50;;;7.72;;
68523;SDS011;55524;51.380;13.372;2022-11-27T08:09:05;16.33;;;7.85;;
68523;SDS011;55524;51.380;13.372;2022-11-27T08:11:38;21.92;;;9.20;;
68523;SDS011;55524;51.380;13.372;2022-11-27T08:14:05;16.67;;;7.72;;
68523;SDS011;55524;51.380;13.372;2022-11-27T08:17:12;16.00;;;7.47;;
68523;SDS011;55524;51.380;13.372;2022-11-27T08:19:58;10.70;;;5.63;;
68523;SDS011;55524;51.380;13.372;2022-11-27T08:22:59;12.73;;;6.47;;
68523;SDS011;55524;51.380;13.372;2022-11-27T08:25:35;10.40;;;5.10;;
68523;SDS011;55524;51.380;13.372;2022-11-27T08:28:22;13.30;;;6.30;;
68523;SDS011;55524;51.380;13.372;2022-11-27T08:31:01;13.00;;;6.07;;
68523;SDS011;55524;51.380;13.372;2022-11-27T08:33:39;13.77;;;6.53;;
68523;SDS011;55524;51.380;13.372;2022-11-27T08:36:06;16.10;;;6.78;;
68523;SDS011;55524;51.380;13.372;2022-11-27T08:39:04;11.95;;;6.13;;
68523;SDS011;55524;51.380;13.372;2022-11-27T08:41:39;13.40;;;7.00;;
68523;SDS011;55524;51.380;13.372;2022-11-27T08:44:08;16.25;;;6.95;;
68523;SDS011;55524;51.380;13.372;2022-11-27T08:46:34;13.02;;;6.47;;
68523;SDS011;55524;51.380;13.372;2022-11-27T08:49:01;12.18;;;6.38;;
68523;SDS011;55524;51.380;13.372;2022-11-27T08:51:28;18.13;;;6.75;;
68523;SDS011;55524;51.380;13.372;2022-11-27T08:53:57;15.30;;;6.72;;
68523;SDS011;55524;51.380;13.372;2022-11-27T08:56:44;13.32;;;6.28;;
68523;SDS011;55524;51.380;13.372;2022-11-27T08:59:51;11.60;;;6.28;;
68523;SDS011;55524;51.380;13.372;2022-11-27T09:02:20;35.42;;;18.40;;
68523;SDS011;55524;51.380;13.372;2022-11-27T09:08:00;10.70;;;6.35;;
68523;SDS011;55524;51.380;13.372;2022-11-27T09:10:50;13.45;;;5.93;;
68523;SDS011;55524;51.380;13.372;2022-11-27T09:14:00;8.95;;;5.57;;
68523;SDS011;55524;51.380;13.372;2022-11-27T09:16:36;16.48;;;6.22;;
68523;SDS011;55524;51.380;13.372;2022-11-27T09:19:25;11.15;;;4.90;;
68523;SDS011;55524;51.380;13.372;2022-11-27T09:21:54;18.95;;;5.22;;
68523;SDS011;55524;51.380;13.372;2022-11-27T09:24:20;11.68;;;4.78;;
68523;SDS011;55524;51.380;13.372;2022-11-27T09:27:18;12.98;;;4.95;;
68523;SDS011;55524;51.380;13.372;2022-11-27T09:29:45;8.13;;;5.03;;
68523;SDS011;55524;51.380;13.372;2022-11-27T09:32:31;12.10;;;5.85;;
68523;SDS011;55524;51.380;13.372;2022-11-27T09:35:36;10.15;;;5.70;;
68523;SDS011;55524;51.380;13.372;2022-11-27T09:38:08;13.15;;;5.30;;
68523;SDS011;55524;51.380;13.372;2022-11-27T09:40:37;9.93;;;5.50;;
68523;SDS011;55524;51.380;13.372;2022-11-27T09:43:42;9.02;;;4.68;;
68523;SDS011;55524;51.380;13.372;2022-11-27T09:47:20;8.43;;;4.43;;
68523;SDS011;55524;51.380;13.372;2022-11-27T09:55:46;6.95;;;3.85;;
68523;SDS011;55524;51.380;13.372;2022-11-27T10:01:43;5.07;;;3.60;;
68523;SDS011;55524;51.380;13.372;2022-11-27T10:04:32;6.82;;;4.22;;
68523;SDS011;55524;51.380;13.372;2022-11-27T10:18:53;8.43;;;2.80;;
68523;SDS011;55524;51.380;13.372;2022-11-27T10:21:51;10.55;;;3.10;;
68523;SDS011;55524;51.380;13.372;2022-11-27T10:27:13;22.23;;;4.30;;
68523;SDS011;55524;51.380;13.372;2022-11-27T10:29:49;53.45;;;6.20;;
68523;SDS011;55524;51.380;13.372;2022-11-27T10:32:22;19.52;;;3.72;;
68523;SDS011;55524;51.380;13.372;2022-11-27T10:43:42;10.75;;;3.28;;
68523;SDS011;55524;51.380;13.372;2022-11-27T10:46:15;16.50;;;3.70;;
68523;SDS011;55524;51.380;13.372;2022-11-27T10:49:11;16.58;;;3.90;;
68523;SDS011;55524;51.380;13.372;2022-11-27T10:51:40;7.55;;;3.40;;
68523;SDS011;55524;51.380;13.372;2022-11-27T10:54:26;9.30;;;3.40;;
68523;SDS011;55524;51.380;13.372;2022-11-27T10:57:39;6.20;;;2.95;;
68523;SDS011;55524;51.380;13.372;2022-11-27T11:00:27;9.60;;;3.40;;
68523;SDS011;55524;51.380;13.372;2022-11-27T11:02:58;98.22;;;8.85;;
68523;SDS011;55524;51.380;13.372;2022-11-27T11:05:30;32.08;;;5.97;;
68523;SDS011;55524;51.380;13.372;2022-11-27T11:08:37;6.43;;;3.70;;
68523;SDS011;55524;51.380;13.372;2022-11-27T11:11:09;5.40;;;2.85;;
68523;SDS011;55524;51.380;13.372;2022-11-27T11:14:19;8.27;;;3.20;;
68523;SDS011;55524;51.380;13.372;2022-11-27T11:16:50;3.20;;;2.88;;
68523;SDS011;55524;51.380;13.372;2022-11-27T11:19:46;6.65;;;3.08;;
68523;SDS011;55524;51.380;13.372;2022-11-27T11:22:18;6.13;;;3.38;;
68523;SDS011;55524;51.380;13.372;2022-11-27T11:24:48;9.63;;;4.07;;
68523;SDS011;55524;51.380;13.372;2022-11-27T11:27:35;6.40;;;3.28;;
68523;SDS011;55524;51.380;13.372;2022-11-27T11:30:18;7.53;;;3.55;;
68523;SDS011;55524;51.380;13.372;2022-11-27T11:32:47;10.55;;;3.80;;
68523;SDS011;55524;51.380;13.372;2022-11-27T11:37:55;8.68;;;3.22;;
68523;SDS011;55524;51.380;13.372;2022-11-27T11:40:55;6.00;;;2.97;;
68523;SDS011;55524;51.380;13.372;2022-11-27T11:43:59;5.13;;;2.67;;
68523;SDS011;55524;51.380;13.372;2022-11-27T11:46:31;7.15;;;2.60;;
68523;SDS011;55524;51.380;13.372;2022-11-27T11:49:24;6.72;;;2.40;;
68523;SDS011;55524;51.380;13.372;2022-11-27T11:57:11;3.30;;;2.33;;
68523;SDS011;55524;51.380;13.372;2022-11-27T12:00:23;4.38;;;2.50;;
68523;SDS011;55524;51.380;13.372;2022-11-27T12:06:18;4.30;;;2.30;;
68523;SDS011;55524;51.380;13.372;2022-11-27T12:12:41;4.60;;;3.10;;
68523;SDS011;55524;51.380;13.372;2022-11-27T12:23:57;3.85;;;2.30;;
68523;SDS011;55524;51.380;13.372;2022-11-27T12:45:48;5.28;;;3.40;;
68523;SDS011;55524;51.380;13.372;2022-11-27T12:48:43;12.70;;;4.50;;
68523;SDS011;55524;51.380;13.372;2022-11-27T12:51:26;7.05;;;3.35;;
68523;SDS011;55524;51.380;13.372;2022-11-27T12:57:14;5.30;;;3.33;;
68523;SDS011;55524;51.380;13.372;2022-11-27T12:59:55;5.13;;;3.30;;
68523;SDS011;55524;51.380;13.372;2022-11-27T13:05:39;5.07;;;3.83;;
68523;SDS011;55524;51.380;13.372;2022-11-27T13:08:25;7.32;;;3.50;;
68523;SDS011;55524;51.380;13.372;2022-11-27T13:11:12;7.97;;;4.18;;
68523;SDS011;55524;51.380;13.372;2022-11-27T13:14:02;6.15;;;3.30;;
68523;SDS011;55524;51.380;13.372;2022-11-27T13:16:51;5.05;;;3.03;;
68523;SDS011;55524;51.380;13.372;2022-11-27T13:19:30;4.72;;;3.15;;
68523;SDS011;55524;51.380;13.372;2022-11-27T13:22:21;10.30;;;3.30;;
68523;SDS011;55524;51.380;13.372;2022-11-27T13:25:01;7.55;;;3.10;;
68523;SDS011;55524;51.380;13.372;2022-11-27T13:27:31;6.78;;;3.10;;
68523;SDS011;55524;51.380;13.372;2022-11-27T13:30:02;7.78;;;3.58;;
68523;SDS011;55524;51.380;13.372;2022-11-27T13:32:32;12.35;;;4.57;;
68523;SDS011;55524;51.380;13.372;2022-11-27T13:40:36;11.70;;;6.57;;
68523;SDS011;55524;51.380;13.372;2022-11-27T13:43:19;11.25;;;5.45;;
68523;SDS011;55524;51.380;13.372;2022-11-27T13:45:58;10.80;;;5.38;;
68523;SDS011;55524;51.380;13.372;2022-11-27T13:48:46;6.80;;;3.60;;
68523;SDS011;55524;51.380;13.372;2022-11-27T13:51:23;7.95;;;4.65;;
68523;SDS011;55524;51.380;13.372;2022-11-27T13:53:50;9.38;;;3.92;;
68523;SDS011;55524;51.380;13.372;2022-11-27T13:56:26;8.93;;;4.72;;
68523;SDS011;55524;51.380;13.372;2022-11-27T13:58:55;10.85;;;4.00;;
68523;SDS011;55524;51.380;13.372;2022-11-27T14:01:22;6.18;;;3.97;;
68523;SDS011;55524;51.380;13.372;2022-11-27T14:03:53;7.10;;;4.07;;
68523;SDS011;55524;51.380;13.372;2022-11-27T14:06:30;10.98;;;4.13;;
68523;SDS011;55524;51.380;13.372;2022-11-27T14:09:00;9.63;;;4.50;;
68523;SDS011;55524;51.380;13.372;2022-11-27T14:11:35;6.22;;;3.45;;
68523;SDS011;55524;51.380;13.372;2022-11-27T14:17:25;9.48;;;3.70;;
68523;SDS011;55524;51.380;13.372;2022-11-27T14:23:09;6.00;;;3.47;;
68523;SDS011;55524;51.380;13.372;2022-11-27T14:25:36;6.93;;;3.63;;
68523;SDS011;55524;51.380;13.372;2022-11-27T14:28:23;12.25;;;3.72;;
68523;SDS011;55524;51.380;13.372;2022-11-27T14:31:00;12.52;;;3.92;;
68523;SDS011;55524;51.380;13.372;2022-11-27T14:36:17;7.38;;;4.38;;
68523;SDS011;55524;51.380;13.372;2022-11-27T14:38:58;8.23;;;4.40;;
68523;SDS011;55524;51.380;13.372;2022-11-27T14:41:54;9.10;;;4.40;;
68523;SDS011;55524;51.380;13.372;2022-11-27T14:44:24;13.82;;;4.70;;
68523;SDS011;55524;51.380;13.372;2022-11-27T14:47:00;10.65;;;5.35;;
68523;SDS011;55524;51.380;13.372;2022-11-27T14:49:52;8.85;;;5.10;;
68523;SDS011;55524;51.380;13.372;2022-11-27T14:52:45;7.82;;;4.40;;
68523;SDS011;55524;51.380;13.372;2022-11-27T14:55:23;8.00;;;4.63;;
68523;SDS011;55524;51.380;13.372;2022-11-27T14:58:18;5.53;;;4.25;;
68523;SDS011;55524;51.380;13.372;2022-11-27T15:01:27;9.82;;;4.90;;
68523;SDS011;55524;51.380;13.372;2022-11-27T15:04:27;7.20;;;4.47;;
68523;SDS011;55524;51.380;13.372;2022-11-27T15:07:19;6.88;;;4.50;;
68523;SDS011;55524;51.380;13.372;2022-11-27T15:10:23;11.20;;;4.07;;
68523;SDS011;55524;51.380;13.372;2022-11-27T15:12:55;8.93;;;4.30;;
68523;SDS011;55524;51.380;13.372;2022-11-27T15:18:20;11.00;;;4.90;;
68523;SDS011;55524;51.380;13.372;2022-11-27T15:20:51;11.38;;;4.97;;
68523;SDS011;55524;51.380;13.372;2022-11-27T15:28:36;8.68;;;4.57;;
68523;SDS011;55524;51.380;13.372;2022-11-27T15:31:24;8.45;;;4.55;;
68523;SDS011;55524;51.380;13.372;2022-11-27T15:36:59;14.75;;;6.15;;
68523;SDS011;55524;51.380;13.372;2022-11-27T15:39:43;13.85;;;7.30;;
68523;SDS011;55524;51.380;13.372;2022-11-27T15:42:17;15.45;;;8.30;;
68523;SDS011;55524;51.380;13.372;2022-11-27T15:44:51;17.90;;;8.52;;
68523;SDS011;55524;51.380;13.372;2022-11-27T15:47:40;16.65;;;7.85;;
68523;SDS011;55524;51.380;13.372;2022-11-27T15:50:16;16.48;;;7.68;;
68523;SDS011;55524;51.380;13.372;2022-11-27T15:52:42;17.38;;;8.32;;
68523;SDS011;55524;51.380;13.372;2022-11-27T15:55:32;15.93;;;8.13;;
68523;SDS011;55524;51.380;13.372;2022-11-27T15:58:01;14.88;;;8.23;;
68523;SDS011;55524;51.380;13.372;2022-11-27T16:00:28;18.88;;;7.90;;
68523;SDS011;55524;51.380;13.372;2022-11-27T16:03:24;12.13;;;7.18;;
68523;SDS011;55524;51.380;13.372;2022-11-27T16:05:52;29.33;;;13.30;;
68523;SDS011;55524;51.380;13.372;2022-11-27T16:08:59;24.15;;;14.98;;
68523;SDS011;55524;51.380;13.372;2022-11-27T16:11:52;19.73;;;10.48;;
68523;SDS011;55524;51.380;13.372;2022-11-27T16:14:42;18.13;;;9.38;;
68523;SDS011;55524;51.380;13.372;2022-11-27T16:17:08;25.38;;;9.50;;
68523;SDS011;55524;51.380;13.372;2022-11-27T16:19:40;27.10;;;9.52;;
68523;SDS011;55524;51.380;13.372;2022-11-27T16:22:27;16.05;;;7.43;;
68523;SDS011;55524;51.380;13.372;2022-11-27T16:25:24;11.82;;;6.00;;
68523;SDS011;55524;51.380;13.372;2022-11-27T16:27:50;14.10;;;6.13;;
68523;SDS011;55524;51.380;13.372;2022-11-27T16:30:16;15.13;;;6.55;;
68523;SDS011;55524;51.380;13.372;2022-11-27T16:32:46;12.07;;;6.05;;
68523;SDS011;55524;51.380;13.372;2022-11-27T16:35:36;13.27;;;7.72;;
68523;SDS011;55524;51.380;13.372;2022-11-27T16:38:28;18.33;;;9.63;;
68523;SDS011;55524;51.380;13.372;2022-11-27T16:41:13;20.27;;;10.27;;
68523;SDS011;55524;51.380;13.372;2022-11-27T16:44:07;15.65;;;9.93;;
68523;SDS011;55524;51.380;13.372;2022-11-27T16:46:40;15.95;;;8.23;;
68523;SDS011;55524;51.380;13.372;2022-11-27T16:49:33;13.80;;;7.75;;
68523;SDS011;55524;51.380;13.372;2022-11-27T16:52:13;11.55;;;6.15;;
68523;SDS011;55524;51.380;13.372;2022-11-27T16:55:05;9.48;;;6.03;;
68523;SDS011;55524;51.380;13.372;2022-11-27T16:57:47;11.75;;;6.60;;
68523;SDS011;55524;51.380;13.372;2022-11-27T17:00:34;10.82;;;5.55;;
68523;SDS011;55524;51.380;13.372;2022-11-27T17:03:03;10.25;;;5.95;;
68523;SDS011;55524;51.380;13.372;2022-11-27T17:05:33;13.35;;;6.78;;
68523;SDS011;55524;51.380;13.372;2022-11-27T17:08:05;12.18;;;6.88;;
68523;SDS011;55524;51.380;13.372;2022-11-27T17:10:31;18.73;;;7.95;;
68523;SDS011;55524;51.380;13.372;2022-11-27T17:13:18;17.90;;;8.00;;
68523;SDS011;55524;51.380;13.372;2022-11-27T17:15:52;48.00;;;14.40;;
68523;SDS011;55524;51.380;13.372;2022-11-27T17:18:30;39.42;;;12.50;;
68523;SDS011;55524;51.380;13.372;2022-11-27T17:24:13;35.00;;;11.82;;
68523;SDS011;55524;51.380;13.372;2022-11-27T17:27:00;28.48;;;9.63;;
68523;SDS011;55524;51.380;13.372;2022-11-27T17:29:53;26.85;;;9.40;;
68523;SDS011;55524;51.380;13.372;2022-11-27T17:32:28;17.38;;;7.75;;
68523;SDS011;55524;51.380;13.372;2022-11-27T17:34:55;37.20;;;12.15;;
68523;SDS011;55524;51.380;13.372;2022-11-27T17:37:21;12.93;;;7.20;;
68523;SDS011;55524;51.380;13.372;2022-11-27T17:39:53;12.40;;;7.00;;
68523;SDS011;55524;51.380;13.372;2022-11-27T17:42:25;13.38;;;7.43;;
68523;SDS011;55524;51.380;13.372;2022-11-27T17:44:51;16.23;;;6.97;;
68523;SDS011;55524;51.380;13.372;2022-11-27T17:47:58;13.55;;;7.63;;
68523;SDS011;55524;51.380;13.372;2022-11-27T17:50:27;12.77;;;7.50;;
68523;SDS011;55524;51.380;13.372;2022-11-27T17:53:02;13.93;;;8.30;;
68523;SDS011;55524;51.380;13.372;2022-11-27T17:55:52;13.70;;;7.35;;
68523;SDS011;55524;51.380;13.372;2022-11-27T17:58:41;16.58;;;7.13;;
68523;SDS011;55524;51.380;13.372;2022-11-27T18:01:29;13.05;;;6.50;;
68523;SDS011;55524;51.380;13.372;2022-11-27T18:04:22;17.42;;;8.15;;
68523;SDS011;55524;51.380;13.372;2022-11-27T18:06:48;19.38;;;7.50;;
68523;SDS011;55524;51.380;13.372;2022-11-27T18:09:16;16.60;;;8.10;;
68523;SDS011;55524;51.380;13.372;2022-11-27T18:11:43;21.10;;;8.63;;
68523;SDS011;55524;51.380;13.372;2022-11-27T18:14:10;18.20;;;9.43;;
68523;SDS011;55524;51.380;13.372;2022-11-27T18:16:37;17.17;;;8.73;;
68523;SDS011;55524;51.380;13.372;2022-11-27T18:19:15;19.00;;;8.50;;
68523;SDS011;55524;51.380;13.372;2022-11-27T18:21:45;16.65;;;7.57;;
68523;SDS011;55524;51.380;13.372;2022-11-27T18:24:31;14.63;;;7.47;;
68523;SDS011;55524;51.380;13.372;2022-11-27T18:27:01;14.95;;;7.40;;
68523;SDS011;55524;51.380;13.372;2022-11-27T18:29:27;15.32;;;7.13;;
68523;SDS011;55524;51.380;13.372;2022-11-27T18:31:53;16.67;;;7.25;;
68523;SDS011;55524;51.380;13.372;2022-11-27T18:34:19;17.02;;;7.47;;
68523;SDS011;55524;51.380;13.372;2022-11-27T18:36:51;20.05;;;9.15;;